Flight Track Log - Related Links

Times and Time Zones

All times are in EDT time to prevent confusion due to time zone crossing. See the SWA1969 flight status page for this flight to view local times or setup timezone preferences in your user account.

Time Position Orientation Groundspeed Altitude Reporting Facility
EDT Latitude Longitude Course Direction KTS MPH feet Rate Location/Type
Tue 01:21:48 PM 41.7667 -87.7833 251° West 166 191 1,900  Level Chicago TRACON
Tue 01:22:55 PM 41.7500 -87.8500 251° West 210 242 4,000 1,339 Climbing Chicago TRACON
Tue 01:23:49 PM 41.7667 -87.9333 285° West 241 277 4,600 2,000 Climbing Chicago TRACON
Tue 01:24:49 PM 41.7833 -88.0167 285° West 258 297 7,800 2,976 Climbing Chicago TRACON
Tue 01:25:52 PM 41.7953 -88.1208 279° West 263 303 10,700 2,064 Climbing Chicago Center
Tue 01:26:54 PM 41.8017 -88.2231 275° West 278 320 12,100 1,548 Climbing Chicago Center
Tue 01:27:56 PM 41.8053 -88.3289 273° West 286 329 13,900 2,129 Climbing Chicago Center
Tue 01:28:58 PM 41.8058 -88.4411 270° West 301 346 16,500 2,661 Climbing Chicago Center
Tue 01:30:00 PM 41.8044 -88.5853 269° West 321 369 19,400 2,323 Climbing Chicago Center
Tue 01:31:02 PM 41.7758 -88.7072 253° West 344 396 21,300 1,839 Climbing Chicago Center
Tue 01:32:04 PM 41.7475 -88.8328 253° West 354 407 23,200 1,355 Climbing Chicago Center
Tue 01:33:06 PM 41.7175 -88.9656 253° West 372 428 24,100 968 Climbing Chicago Center
Tue 01:34:08 PM 41.6831 -89.1142 253° West 415 478 25,200 1,403 Climbing Chicago Center
Tue 01:35:10 PM 41.6422 -89.2975 253° West 434 499 27,000 1,440 Climbing Chicago Center
Tue 01:36:13 PM 41.6067 -89.4531 253° West 442 509 28,200 1,152 Climbing Chicago Center
Tue 01:37:15 PM 41.5728 -89.5936 252° West 447 514 29,400 1,597 Climbing Chicago Center
Tue 01:38:17 PM 41.5278 -89.7811 252° West 443 510 31,500 1,742 Climbing Chicago Center
Tue 01:39:19 PM 41.4919 -89.9367 253° West 442 509 33,000 1,355 Climbing Chicago Center
Tue 01:40:21 PM 41.4561 -90.0872 252° West 432 497 34,300 1,210 Climbing Chicago Center
Tue 01:41:23 PM 41.4203 -90.2364 252° West 428 493 35,500 823 Climbing Chicago Center
Tue 01:42:25 PM 41.3844 -90.3853 252° West 426 490 36,000 242 Climbing Chicago Center
Tue 01:43:27 PM 41.3400 -90.5664 252° West 431 496 36,000  Level Chicago Center
Tue 01:44:29 PM 41.2964 -90.7197 249° West 447 514 36,000  Level Chicago Center
Tue 01:45:31 PM 41.2544 -90.8672 249° West 431 496 36,000  Level Chicago Center
Tue 01:46:33 PM 41.2100 -91.0128 248° West 428 493 36,000  Level Chicago Center
Tue 01:47:35 PM 41.1667 -91.1603 249° West 430 495 36,000  Level Chicago Center
Tue 01:48:38 PM 41.1239 -91.3069 249° West 426 490 36,000  Level Chicago Center
Tue 01:49:40 PM 41.0697 -91.4822 248° West 429 494 36,000  Level Chicago Center
Tue 01:50:43 PM 41.0256 -91.6306 249° West 433 498 36,000  Level Chicago Center
Tue 01:51:44 PM 40.9825 -91.7683 248° West 431 496 36,000  Level Chicago Center
Tue 01:52:46 PM 40.9294 -91.9450 248° West 435 501 36,000  Level Chicago Center
Tue 01:53:48 PM 40.8842 -92.0894 248° West 431 496 36,000  Level Chicago Center
Tue 01:54:50 PM 40.8389 -92.2342 248° West 431 496 36,000  Level Chicago Center
Tue 01:55:52 PM 40.7936 -92.3775 247° West 430 495 36,000  Level Chicago Center
Tue 01:56:54 PM 40.7503 -92.5206 248° West 427 491 36,000  Level Chicago Center
Tue 01:57:56 PM 40.6956 -92.6922 247° West 428 493 36,000  Level Chicago Center
Tue 01:58:58 PM 40.6506 -92.8342 247° West 428 493 36,000  Level Chicago Center
Tue 01:59:54 PM 40.6058 -92.9744 247° West 424 488 36,000  Level Kansas City Center
Tue 02:00:56 PM 40.5614 -93.1139 247° West 421 484 36,000  Level Kansas City Center
Tue 02:01:58 PM 40.5167 -93.2544 247° West 423 487 36,000  Level Kansas City Center
Tue 02:03:00 PM 40.4706 -93.3947 247° West 424 488 36,000  Level Kansas City Center
Tue 02:04:02 PM 40.4164 -93.5636 247° West 423 487 36,000  Level Kansas City Center
Tue 02:05:04 PM 40.3708 -93.7036 247° West 423 487 36,000  Level Kansas City Center
Tue 02:06:06 PM 40.3236 -93.8428 246° West 422 486 36,000  Level Kansas City Center
Tue 02:07:08 PM 40.2778 -93.9839 247° West 423 487 36,000  Level Kansas City Center
Tue 02:08:10 PM 40.2267 -94.1400 247° West 422 486 36,000  Level Kansas City Center
Tue 02:09:12 PM 40.1800 -94.2728 245° Southwest 421 484 36,000  Level Kansas City Center
Tue 02:10:15 PM 40.1275 -94.4300 246° West 419 482 36,000  Level Kansas City Center
Tue 02:11:17 PM 40.0833 -94.5619 246° West 421 484 36,000  Level Kansas City Center
Tue 02:12:19 PM 40.0308 -94.7178 246° West 420 483 36,000  Level Kansas City Center
Tue 02:13:21 PM 39.9853 -94.8511 246° West 421 484 36,000  Level Kansas City Center
Tue 02:14:23 PM 39.9314 -95.0053 246° West 421 484 36,000  Level Kansas City Center
Tue 02:15:25 PM 39.8833 -95.1336 244° Southwest 415 478 36,000  Level Kansas City Center
Tue 02:16:27 PM 39.8267 -95.2864 244° Southwest 419 482 36,000  Level Kansas City Center
Tue 02:17:29 PM 39.7792 -95.4161 245° Southwest 417 480 36,000  Level Kansas City Center
Tue 02:18:31 PM 39.7217 -95.5683 244° Southwest 422 486 36,000  Level Kansas City Center
Tue 02:19:33 PM 39.6731 -95.6967 244° Southwest 418 481 36,000 -484 Level Kansas City Center
Tue 02:20:35 PM 39.6156 -95.8486 244° Southwest 423 487 35,000 -968 Descending Kansas City Center
Tue 02:21:37 PM 39.5661 -95.9783 244° Southwest 421 484 34,000 -484 Descending Kansas City Center
Tue 02:22:39 PM 39.5097 -96.1267 244° Southwest 414 476 34,000  Level Kansas City Center
Tue 02:23:41 PM 39.4600 -96.2553 243° Southwest 415 478 34,000  Level Kansas City Center
Tue 02:24:43 PM 39.4064 -96.3900 243° Southwest 419 482 34,000  Level Kansas City Center
Tue 02:25:45 PM 39.3508 -96.5375 244° Southwest 426 490 34,000  Level Kansas City Center
Tue 02:26:47 PM 39.2919 -96.6878 243° Southwest 423 487 34,000  Level Kansas City Center
Tue 02:27:49 PM 39.2414 -96.8189 244° Southwest 425 489 34,000  Level Kansas City Center
Tue 02:28:51 PM 39.1822 -96.9681 243° Southwest 420 483 34,000  Level Kansas City Center
Tue 02:29:53 PM 39.1317 -97.0978 243° Southwest 421 484 34,000  Level Kansas City Center
Tue 02:30:55 PM 39.0739 -97.2483 244° Southwest 422 486 34,000  Level Kansas City Center
Tue 02:31:57 PM 39.0228 -97.3775 243° Southwest 422 486 34,000  Level Kansas City Center
Tue 02:32:59 PM 38.9664 -97.5189 243° Southwest 424 488 34,000  Level Kansas City Center
Tue 02:34:01 PM 38.9125 -97.6589 244° Southwest 425 489 34,000  Level Kansas City Center
Tue 02:35:03 PM 38.8722 -97.7942 249° West 424 488 34,000  Level Kansas City Center
Tue 02:36:05 PM 38.8256 -97.9439 248° West 427 491 34,000  Level Kansas City Center
Tue 02:37:07 PM 38.7817 -98.0844 248° West 428 493 34,000  Level Kansas City Center
Tue 02:38:10 PM 38.7381 -98.2256 248° West 427 491 34,000 480 Level Kansas City Center
Tue 02:39:12 PM 38.6806 -98.3925 246° West 430 495 35,000 484 Climbing Kansas City Center
Tue 02:40:14 PM 38.6267 -98.5258 243° Southwest 425 489 35,000  Level Kansas City Center
Tue 02:41:16 PM 38.5722 -98.6606 243° Southwest 428 493 35,000  Level Kansas City Center
Tue 02:42:18 PM 38.5178 -98.7944 243° Southwest 428 493 35,000  Level Kansas City Center
Tue 02:43:20 PM 38.4619 -98.9292 242° Southwest 430 495 35,000  Level Kansas City Center
Tue 02:44:22 PM 38.4081 -99.0631 243° Southwest 427 491 35,000 97 Level Kansas City Center
Tue 02:45:24 PM 38.3417 -99.2231 242° Southwest 427 491 35,200 484 Climbing Kansas City Center
Tue 02:46:26 PM 38.2853 -99.3578 242° Southwest 430 495 36,000 387 Climbing Kansas City Center
Tue 02:47:28 PM 38.2289 -99.4919 242° Southwest 431 496 36,000  Level Kansas City Center
Tue 02:48:30 PM 38.1842 -99.6539 251° West 428 493 36,000  Level Kansas City Center
Tue 02:50:34 PM 38.0994 -99.9492 250° West 430 495 36,000  Level Kansas City Center
Tue 02:51:36 PM 38.0594 -100.0844 249° West 430 495 36,000  Level Kansas City Center
Tue 02:52:39 PM 38.0139 -100.2417 250° West 427 491 36,000  Level Kansas City Center
Tue 02:53:40 PM 37.9750 -100.3758 250° West 425 489 36,000  Level Kansas City Center
Tue 02:54:42 PM 37.9292 -100.5317 250° West 424 488 36,000  Level Kansas City Center
Tue 02:55:44 PM 37.8889 -100.6664 249° West 426 490 36,000  Level Kansas City Center
Tue 02:56:46 PM 37.8422 -100.8247 250° West 432 497 36,000  Level Kansas City Center
Tue 02:57:48 PM 37.8017 -100.9597 249° West 436 502 36,000  Level Kansas City Center
Tue 02:58:50 PM 37.7550 -101.1100 249° West 437 503 36,000  Level Kansas City Center
Tue 02:59:54 PM 37.7117 -101.2542 249° West 439 505 36,000  Level Kansas City Center
Tue 03:00:56 PM 37.6628 -101.4147 249° West 440 506 36,000  Level Kansas City Center
Tue 03:01:58 PM 37.6208 -101.5528 249° West 442 509 36,000  Level Kansas City Center
Tue 03:03:00 PM 37.5714 -101.7125 249° West 439 505 36,000  Level Kansas City Center
Tue 03:04:03 PM 37.5300 -101.8483 249° West 437 503 36,000  Level Kansas City Center
Tue 03:04:38 PM 37.5022 -101.9397 249° West 433 498 36,000  Level Albuquerque Center
Tue 03:05:39 PM 37.4589 -102.0756 248° West 435 501 36,000  Level Albuquerque Center
Tue 03:06:41 PM 37.4111 -102.2336 249° West 434 499 36,000  Level Albuquerque Center
Tue 03:07:43 PM 37.3675 -102.3722 248° West 437 503 36,000  Level Albuquerque Center
Tue 03:08:45 PM 37.3178 -102.5311 249° West 437 503 36,000  Level Albuquerque Center
Tue 03:09:46 PM 37.2744 -102.6672 248° West 438 504 36,000  Level Albuquerque Center
Tue 03:10:48 PM 37.2233 -102.8267 248° West 440 506 36,000  Level Albuquerque Center
Tue 03:11:50 PM 37.1803 -102.9625 248° West 438 504 36,000  Level Albuquerque Center
Tue 03:12:52 PM 37.1344 -103.0992 247° West 441 507 36,000  Level Albuquerque Center
Tue 03:13:54 PM 37.0844 -103.2556 248° West 434 499 36,000  Level Albuquerque Center
Tue 03:14:55 PM 37.0394 -103.3925 248° West 440 506 36,000  Level Albuquerque Center
Tue 03:15:57 PM 36.9883 -103.5508 248° West 439 505 36,000  Level Albuquerque Center
Tue 03:16:59 PM 36.9447 -103.6850 248° West 436 502 36,000  Level Albuquerque Center
Tue 03:18:01 PM 36.8989 -103.8200 247° West 438 504 36,000  Level Albuquerque Center
Tue 03:19:02 PM 36.8478 -103.9783 248° West 438 504 36,000  Level Albuquerque Center
Tue 03:20:04 PM 36.8019 -104.1122 247° West 437 503 36,000  Level Albuquerque Center
Tue 03:21:06 PM 36.7492 -104.2681 247° West 436 502 36,000  Level Albuquerque Center
Tue 03:22:08 PM 36.7044 -104.4014 247° West 434 499 36,000  Level Albuquerque Center
Tue 03:23:09 PM 36.6564 -104.5389 246° West 433 498 36,000  Level Albuquerque Center
Tue 03:24:11 PM 36.6081 -104.6797 247° West 438 504 36,000  Level Albuquerque Center
Tue 03:25:13 PM 36.5608 -104.8200 247° West 438 504 36,000  Level Albuquerque Center
Tue 03:26:15 PM 36.5044 -104.9839 247° West 438 504 36,000  Level Albuquerque Center
Tue 03:27:16 PM 36.4553 -105.1250 247° West 441 507 36,000  Level Albuquerque Center
Tue 03:28:18 PM 36.4058 -105.2681 247° West 447 514 36,000  Level Albuquerque Center
Tue 03:29:20 PM 36.3550 -105.4103 246° West 449 517 36,000  Level Albuquerque Center
Tue 03:30:21 PM 36.3122 -105.5344 247° West 440 506 36,000  Level Albuquerque Center
Tue 03:31:23 PM 36.2639 -105.6714 246° West 436 502 36,000  Level Albuquerque Center
Tue 03:32:25 PM 36.2067 -105.8350 247° West 434 499 36,000  Level Albuquerque Center
Tue 03:33:26 PM 36.1581 -105.9719 246° West 434 499 36,000  Level Albuquerque Center
Tue 03:34:28 PM 36.1092 -106.1072 246° West 433 498 36,000  Level Albuquerque Center
Tue 03:35:29 PM 36.0617 -106.2450 247° West 435 501 36,000  Level Albuquerque Center
Tue 03:36:31 PM 36.0119 -106.3806 246° West 436 502 36,000  Level Albuquerque Center
Tue 03:37:33 PM 35.9631 -106.5178 246° West 437 503 36,000  Level Albuquerque Center
Tue 03:38:34 PM 35.9039 -106.6800 246° West 431 496 36,000  Level Albuquerque Center
Tue 03:39:36 PM 35.8569 -106.8089 246° West 431 496 36,000  Level Albuquerque Center
Tue 03:40:38 PM 35.8097 -106.9369 246° West 429 494 36,000 -585 Level Albuquerque Center
Tue 03:41:39 PM 35.7547 -107.0861 246° West 427 491 34,800 -976 Descending Albuquerque Center
Tue 03:42:41 PM 35.7075 -107.2150 246° West 430 495 34,000 -390 Descending Albuquerque Center
Tue 03:43:42 PM 35.6531 -107.3625 246° West 427 491 34,000  Level Albuquerque Center
Tue 03:44:44 PM 35.6050 -107.4900 245° Southwest 427 491 34,000  Level Albuquerque Center
Tue 03:45:46 PM 35.5569 -107.6172 245° Southwest 428 493 34,000  Level Albuquerque Center
Tue 03:46:47 PM 35.5017 -107.7664 246° West 429 494 34,000  Level Albuquerque Center
Tue 03:47:49 PM 35.4533 -107.8939 245° Southwest 430 495 34,000  Level Albuquerque Center
Tue 03:48:51 PM 35.3969 -108.0456 246° West 433 498 34,000  Level Albuquerque Center
Tue 03:49:53 PM 35.3472 -108.1739 245° Southwest 434 499 34,000 -293 Level Albuquerque Center
Tue 03:50:54 PM 35.2886 -108.3244 245° Southwest 436 502 33,400 -732 Descending Albuquerque Center
Tue 03:51:56 PM 35.2414 -108.4503 245° Southwest 428 493 32,500 -677 Descending Albuquerque Center
Tue 03:52:58 PM 35.1928 -108.5767 245° Southwest 426 490 32,000 -244 Descending Albuquerque Center
Tue 03:53:59 PM 35.1367 -108.7206 245° Southwest 422 486 32,000  Level Albuquerque Center
Tue 03:55:01 PM 35.0878 -108.8469 245° Southwest 426 490 32,000  Level Albuquerque Center
Tue 03:56:03 PM 35.0306 -108.9931 244° Southwest 425 489 32,000  Level Albuquerque Center
Tue 03:57:04 PM 34.9819 -109.1194 245° Southwest 428 493 32,000  Level Albuquerque Center
Tue 03:58:06 PM 34.9333 -109.2453 245° Southwest 428 493 32,000  Level Albuquerque Center
Tue 03:59:08 PM 34.8806 -109.3947 247° West 429 494 32,000  Level Albuquerque Center
Tue 04:00:09 PM 34.8328 -109.5197 245° Southwest 426 490 32,000  Level Albuquerque Center
Tue 04:01:11 PM 34.7778 -109.6661 245° Southwest 425 489 32,000  Level Albuquerque Center
Tue 04:02:13 PM 34.7306 -109.7958 246° West 432 497 32,000  Level Albuquerque Center
Tue 04:03:15 PM 34.6758 -109.9458 246° West 434 499 32,000  Level Albuquerque Center
Tue 04:04:16 PM 34.6278 -110.0711 245° Southwest 430 495 32,000  Level Albuquerque Center
Tue 04:05:18 PM 34.5836 -110.2047 248° West 440 506 32,000  Level Albuquerque Center
Tue 04:06:20 PM 34.5247 -110.3450 243° Southwest 425 489 32,000 -823 Level Albuquerque Center
Tue 04:07:22 PM 34.4811 -110.4686 247° West 427 491 30,300 -1,854 Descending Albuquerque Center
Tue 04:08:23 PM 34.4350 -110.5950 246° West 415 478 28,200 -2,000 Descending Albuquerque Center
Tue 04:09:25 PM 34.3889 -110.7156 245° Southwest 401 461 26,200 -2,081 Descending Albuquerque Center
Tue 04:10:27 PM 34.3194 -110.8456 237° Southwest 387 445 23,900 -2,032 Descending Albuquerque Center
Tue 04:11:29 PM 34.2469 -110.9367 226° Southwest 379 436 22,000 -1,403 Descending Albuquerque Center
Tue 04:12:31 PM 34.1778 -111.0247 226° Southwest 370 426 21,000 -1,220 Descending Albuquerque Center
Tue 04:13:32 PM 34.1158 -111.1050 227° Southwest 340 391 19,500 -1,512 Descending Albuquerque Center
Tue 04:14:34 PM 34.0544 -111.1825 226° Southwest 327 376 17,900 -1,645 Descending Albuquerque Center
Tue 04:15:36 PM 33.9947 -111.2608 227° Southwest 321 369 16,100 -1,742 Descending Albuquerque Center
Tue 04:16:38 PM 33.9358 -111.3347 226° Southwest 308 354 14,300 -1,645 Descending Albuquerque Center
Tue 04:17:40 PM 33.8672 -111.4186 225° Southwest 293 337 12,700 -1,512 Descending Albuquerque Center
Tue 04:18:41 PM 33.8039 -111.4719 215° Southwest 278 320 11,200 -1,073 Descending Albuquerque Center
Tue 04:19:43 PM 33.7431 -111.5244 216° Southwest 268 308 10,500 -726 Descending Albuquerque Center
Tue 04:20:45 PM 33.6897 -111.5692 215° Southwest 237 273 9,700 -919 Descending Albuquerque Center
Tue 04:21:47 PM 33.6311 -111.5861 194° South 228 262 8,600 -823 Descending Albuquerque Center
Tue 04:22:49 PM 33.5672 -111.5828 178° South 230 265 8,000 -484 Descending Albuquerque Center
Tue 04:23:51 PM 33.5097 -111.5803 178° South 208 239 7,600 -774 Descending Albuquerque Center
Tue 04:24:53 PM 33.4678 -111.6033 205° Southwest 177 204 6,400 -1,171 Descending Albuquerque Center
Tue 04:25:54 PM 33.4411 -111.6653 243° Southwest 195 224 5,200 -683 Descending Albuquerque Center
Tue 04:26:56 PM 33.4411 -111.7261 270° West 182 209 5,000 -484 Descending Albuquerque Center
Tue 04:27:58 PM 33.4406 -111.7872 269° West 183 211 4,200 -823 Descending Albuquerque Center
Tue 04:29:00 PM 33.4408 -111.8503 270° West 188 216 3,300 -871 Descending Albuquerque Center
Tue 04:30:02 PM 33.4408 -111.9089 270° West 178 205 2,400 -774 Descending Albuquerque Center
Tue 04:31:04 PM 33.4414 -111.9586 271° West 154 177 1,700 -629 Descending Albuquerque Center
Tue 04:32:06 PM 33.4489 -112.0094 280° West 154 177 1,100 -581 Descending Albuquerque Center

Login

Don't have an account? Register now (free) for customized features, flight alerts, and more!